sensor_id;sensor_type;location;lat;lon;timestamp;P1;durP1;ratioP1;P2;durP2;ratioP2
34765;SDS011;20984;43.508;1.504;2022-10-31T00:02:11;32.83;;;9.88;;
34765;SDS011;20984;43.508;1.504;2022-10-31T00:04:37;29.83;;;10.10;;
34765;SDS011;20984;43.508;1.504;2022-10-31T00:07:03;24.27;;;9.85;;
34765;SDS011;20984;43.508;1.504;2022-10-31T00:09:28;25.77;;;9.82;;
34765;SDS011;20984;43.508;1.504;2022-10-31T00:11:54;24.23;;;9.00;;
34765;SDS011;20984;43.508;1.504;2022-10-31T00:14:20;23.40;;;9.45;;
34765;SDS011;20984;43.508;1.504;2022-10-31T00:16:46;31.58;;;9.20;;
34765;SDS011;20984;43.508;1.504;2022-10-31T00:19:12;26.13;;;9.25;;
34765;SDS011;20984;43.508;1.504;2022-10-31T00:21:38;24.80;;;9.38;;
34765;SDS011;20984;43.508;1.504;2022-10-31T00:24:04;30.17;;;10.07;;
34765;SDS011;20984;43.508;1.504;2022-10-31T00:26:30;30.83;;;10.63;;
34765;SDS011;20984;43.508;1.504;2022-10-31T00:28:57;27.65;;;9.15;;
34765;SDS011;20984;43.508;1.504;2022-10-31T00:31:23;24.63;;;9.15;;
34765;SDS011;20984;43.508;1.504;2022-10-31T00:33:49;22.98;;;9.82;;
34765;SDS011;20984;43.508;1.504;2022-10-31T00:36:18;33.20;;;10.18;;
34765;SDS011;20984;43.508;1.504;2022-10-31T00:38:45;30.73;;;10.10;;
34765;SDS011;20984;43.508;1.504;2022-10-31T00:41:13;23.60;;;9.50;;
34765;SDS011;20984;43.508;1.504;2022-10-31T00:43:41;18.70;;;8.38;;
34765;SDS011;20984;43.508;1.504;2022-10-31T00:46:08;27.75;;;9.10;;
34765;SDS011;20984;43.508;1.504;2022-10-31T00:48:34;24.67;;;9.15;;
34765;SDS011;20984;43.508;1.504;2022-10-31T00:51:00;29.77;;;9.13;;
34765;SDS011;20984;43.508;1.504;2022-10-31T00:53:26;24.45;;;9.50;;
34765;SDS011;20984;43.508;1.504;2022-10-31T00:55:52;21.30;;;9.05;;
34765;SDS011;20984;43.508;1.504;2022-10-31T00:58:18;29.55;;;9.25;;
34765;SDS011;20984;43.508;1.504;2022-10-31T01:00:44;27.65;;;9.90;;
34765;SDS011;20984;43.508;1.504;2022-10-31T01:03:11;26.50;;;9.38;;
34765;SDS011;20984;43.508;1.504;2022-10-31T01:05:37;27.23;;;10.25;;
34765;SDS011;20984;43.508;1.504;2022-10-31T01:08:03;22.30;;;9.07;;
34765;SDS011;20984;43.508;1.504;2022-10-31T01:10:29;25.67;;;9.88;;
34765;SDS011;20984;43.508;1.504;2022-10-31T01:12:54;25.75;;;9.85;;
34765;SDS011;20984;43.508;1.504;2022-10-31T01:15:21;22.27;;;10.85;;
34765;SDS011;20984;43.508;1.504;2022-10-31T01:17:48;20.58;;;9.73;;
34765;SDS011;20984;43.508;1.504;2022-10-31T01:20:14;24.05;;;10.45;;
34765;SDS011;20984;43.508;1.504;2022-10-31T01:22:41;28.98;;;10.45;;
34765;SDS011;20984;43.508;1.504;2022-10-31T01:25:07;25.25;;;9.85;;
34765;SDS011;20984;43.508;1.504;2022-10-31T01:27:34;33.88;;;10.10;;
34765;SDS011;20984;43.508;1.504;2022-10-31T01:30:00;25.90;;;9.98;;
34765;SDS011;20984;43.508;1.504;2022-10-31T01:32:26;27.60;;;10.30;;
34765;SDS011;20984;43.508;1.504;2022-10-31T01:34:54;29.17;;;10.75;;
34765;SDS011;20984;43.508;1.504;2022-10-31T01:37:20;30.30;;;11.93;;
34765;SDS011;20984;43.508;1.504;2022-10-31T01:39:47;27.77;;;11.10;;
34765;SDS011;20984;43.508;1.504;2022-10-31T01:42:18;32.45;;;10.77;;
34765;SDS011;20984;43.508;1.504;2022-10-31T01:44:53;30.67;;;12.50;;
34765;SDS011;20984;43.508;1.504;2022-10-31T01:47:25;28.52;;;10.45;;
34765;SDS011;20984;43.508;1.504;2022-10-31T01:50:04;35.45;;;13.15;;
34765;SDS011;20984;43.508;1.504;2022-10-31T01:52:44;26.00;;;11.55;;
34765;SDS011;20984;43.508;1.504;2022-10-31T01:55:30;32.13;;;11.02;;
34765;SDS011;20984;43.508;1.504;2022-10-31T01:57:59;24.73;;;10.75;;
34765;SDS011;20984;43.508;1.504;2022-10-31T02:00:31;36.28;;;11.05;;
34765;SDS011;20984;43.508;1.504;2022-10-31T02:02:57;27.40;;;11.88;;
34765;SDS011;20984;43.508;1.504;2022-10-31T02:05:24;28.58;;;12.45;;
34765;SDS011;20984;43.508;1.504;2022-10-31T02:10:52;27.38;;;10.90;;
34765;SDS011;20984;43.508;1.504;2022-10-31T02:13:19;27.95;;;11.30;;
34765;SDS011;20984;43.508;1.504;2022-10-31T02:15:47;30.83;;;12.80;;
34765;SDS011;20984;43.508;1.504;2022-10-31T02:18:18;30.83;;;11.27;;
34765;SDS011;20984;43.508;1.504;2022-10-31T02:20:50;24.48;;;11.20;;
34765;SDS011;20984;43.508;1.504;2022-10-31T02:46:15;27.88;;;11.40;;
34765;SDS011;20984;43.508;1.504;2022-10-31T02:48:50;28.98;;;10.57;;
34765;SDS011;20984;43.508;1.504;2022-10-31T02:51:19;32.28;;;12.18;;
34765;SDS011;20984;43.508;1.504;2022-10-31T02:53:45;24.65;;;11.25;;
34765;SDS011;20984;43.508;1.504;2022-10-31T02:56:12;28.27;;;11.57;;
34765;SDS011;20984;43.508;1.504;2022-10-31T02:58:51;30.73;;;11.43;;
34765;SDS011;20984;43.508;1.504;2022-10-31T03:10:07;37.47;;;13.48;;
34765;SDS011;20984;43.508;1.504;2022-10-31T03:13:01;26.33;;;11.07;;
34765;SDS011;20984;43.508;1.504;2022-10-31T03:15:45;23.08;;;11.30;;
34765;SDS011;20984;43.508;1.504;2022-10-31T03:20:44;26.90;;;11.80;;
34765;SDS011;20984;43.508;1.504;2022-10-31T03:23:15;31.08;;;12.35;;
34765;SDS011;20984;43.508;1.504;2022-10-31T03:25:43;39.05;;;12.57;;
34765;SDS011;20984;43.508;1.504;2022-10-31T03:28:10;31.63;;;11.25;;
34765;SDS011;20984;43.508;1.504;2022-10-31T03:30:40;32.38;;;13.20;;
34765;SDS011;20984;43.508;1.504;2022-10-31T03:33:10;41.08;;;14.07;;
34765;SDS011;20984;43.508;1.504;2022-10-31T03:35:42;30.98;;;11.60;;
34765;SDS011;20984;43.508;1.504;2022-10-31T03:38:11;31.67;;;12.57;;
34765;SDS011;20984;43.508;1.504;2022-10-31T03:40:40;32.42;;;11.65;;
34765;SDS011;20984;43.508;1.504;2022-10-31T03:43:14;26.52;;;12.90;;
34765;SDS011;20984;43.508;1.504;2022-10-31T03:45:45;32.40;;;12.75;;
34765;SDS011;20984;43.508;1.504;2022-10-31T03:48:15;37.20;;;13.30;;
34765;SDS011;20984;43.508;1.504;2022-10-31T03:53:19;35.55;;;12.02;;
34765;SDS011;20984;43.508;1.504;2022-10-31T03:58:19;29.70;;;12.45;;
34765;SDS011;20984;43.508;1.504;2022-10-31T04:00:50;36.10;;;12.80;;
34765;SDS011;20984;43.508;1.504;2022-10-31T04:03:19;30.65;;;11.98;;
34765;SDS011;20984;43.508;1.504;2022-10-31T04:05:49;27.30;;;12.95;;
34765;SDS011;20984;43.508;1.504;2022-10-31T04:08:18;29.70;;;12.65;;
34765;SDS011;20984;43.508;1.504;2022-10-31T04:10:48;30.60;;;12.05;;
34765;SDS011;20984;43.508;1.504;2022-10-31T04:13:17;35.72;;;13.10;;
34765;SDS011;20984;43.508;1.504;2022-10-31T04:15:46;33.50;;;13.02;;
34765;SDS011;20984;43.508;1.504;2022-10-31T04:18:14;30.50;;;13.23;;
34765;SDS011;20984;43.508;1.504;2022-10-31T04:20:41;24.52;;;11.48;;
34765;SDS011;20984;43.508;1.504;2022-10-31T04:23:19;30.92;;;12.63;;
34765;SDS011;20984;43.508;1.504;2022-10-31T04:25:47;26.45;;;12.23;;
34765;SDS011;20984;43.508;1.504;2022-10-31T04:28:13;27.63;;;11.77;;
34765;SDS011;20984;43.508;1.504;2022-10-31T04:30:39;28.27;;;11.60;;
34765;SDS011;20984;43.508;1.504;2022-10-31T04:33:04;30.08;;;12.75;;
34765;SDS011;20984;43.508;1.504;2022-10-31T04:35:30;29.58;;;12.45;;
34765;SDS011;20984;43.508;1.504;2022-10-31T04:37:56;25.27;;;12.20;;
34765;SDS011;20984;43.508;1.504;2022-10-31T04:40:22;26.92;;;12.43;;
34765;SDS011;20984;43.508;1.504;2022-10-31T04:42:48;30.25;;;13.40;;
34765;SDS011;20984;43.508;1.504;2022-10-31T04:45:13;31.27;;;11.80;;
34765;SDS011;20984;43.508;1.504;2022-10-31T04:47:39;29.20;;;12.55;;
34765;SDS011;20984;43.508;1.504;2022-10-31T04:50:05;27.15;;;12.25;;
34765;SDS011;20984;43.508;1.504;2022-10-31T04:52:31;29.55;;;12.18;;
34765;SDS011;20984;43.508;1.504;2022-10-31T04:54:57;28.40;;;13.10;;
34765;SDS011;20984;43.508;1.504;2022-10-31T04:57:23;36.78;;;14.02;;
34765;SDS011;20984;43.508;1.504;2022-10-31T04:59:49;34.05;;;11.73;;
34765;SDS011;20984;43.508;1.504;2022-10-31T05:02:15;30.30;;;14.02;;
34765;SDS011;20984;43.508;1.504;2022-10-31T05:04:41;27.95;;;12.98;;
34765;SDS011;20984;43.508;1.504;2022-10-31T05:07:06;30.58;;;13.13;;
34765;SDS011;20984;43.508;1.504;2022-10-31T05:09:32;31.75;;;13.63;;
34765;SDS011;20984;43.508;1.504;2022-10-31T05:11:58;28.73;;;12.70;;
34765;SDS011;20984;43.508;1.504;2022-10-31T05:14:24;31.05;;;13.30;;
34765;SDS011;20984;43.508;1.504;2022-10-31T05:16:49;24.33;;;12.38;;
34765;SDS011;20984;43.508;1.504;2022-10-31T05:19:15;29.98;;;14.25;;
34765;SDS011;20984;43.508;1.504;2022-10-31T05:21:41;35.85;;;13.13;;
34765;SDS011;20984;43.508;1.504;2022-10-31T05:24:07;39.60;;;12.18;;
34765;SDS011;20984;43.508;1.504;2022-10-31T05:26:33;37.10;;;13.63;;
34765;SDS011;20984;43.508;1.504;2022-10-31T05:28:59;30.13;;;11.82;;
34765;SDS011;20984;43.508;1.504;2022-10-31T05:31:24;28.73;;;12.23;;
34765;SDS011;20984;43.508;1.504;2022-10-31T05:33:50;27.58;;;12.60;;
34765;SDS011;20984;43.508;1.504;2022-10-31T05:36:16;30.27;;;13.98;;
34765;SDS011;20984;43.508;1.504;2022-10-31T05:38:42;32.92;;;12.93;;
34765;SDS011;20984;43.508;1.504;2022-10-31T05:41:08;33.75;;;13.07;;
34765;SDS011;20984;43.508;1.504;2022-10-31T05:43:34;32.17;;;13.05;;
34765;SDS011;20984;43.508;1.504;2022-10-31T05:46:00;27.25;;;12.82;;
34765;SDS011;20984;43.508;1.504;2022-10-31T05:48:26;38.20;;;14.27;;
34765;SDS011;20984;43.508;1.504;2022-10-31T05:50:52;32.85;;;14.00;;
34765;SDS011;20984;43.508;1.504;2022-10-31T05:53:17;34.83;;;14.48;;
34765;SDS011;20984;43.508;1.504;2022-10-31T05:55:43;26.98;;;12.55;;
34765;SDS011;20984;43.508;1.504;2022-10-31T05:58:10;36.90;;;14.02;;
34765;SDS011;20984;43.508;1.504;2022-10-31T06:00:36;28.63;;;13.43;;
34765;SDS011;20984;43.508;1.504;2022-10-31T06:03:03;34.95;;;13.52;;
34765;SDS011;20984;43.508;1.504;2022-10-31T06:05:30;34.75;;;13.50;;
34765;SDS011;20984;43.508;1.504;2022-10-31T06:07:57;39.45;;;12.60;;
34765;SDS011;20984;43.508;1.504;2022-10-31T06:10:23;32.83;;;13.13;;
34765;SDS011;20984;43.508;1.504;2022-10-31T06:12:49;30.00;;;13.18;;
34765;SDS011;20984;43.508;1.504;2022-10-31T06:15:17;31.33;;;12.40;;
34765;SDS011;20984;43.508;1.504;2022-10-31T06:17:43;35.60;;;14.43;;
34765;SDS011;20984;43.508;1.504;2022-10-31T06:20:09;45.25;;;14.52;;
34765;SDS011;20984;43.508;1.504;2022-10-31T06:22:35;36.53;;;13.02;;
34765;SDS011;20984;43.508;1.504;2022-10-31T06:25:01;27.38;;;12.88;;
34765;SDS011;20984;43.508;1.504;2022-10-31T06:27:27;33.65;;;12.63;;
34765;SDS011;20984;43.508;1.504;2022-10-31T06:29:53;31.77;;;13.70;;
34765;SDS011;20984;43.508;1.504;2022-10-31T06:32:19;30.88;;;14.10;;
34765;SDS011;20984;43.508;1.504;2022-10-31T06:34:45;25.30;;;13.05;;
34765;SDS011;20984;43.508;1.504;2022-10-31T06:37:13;32.55;;;12.45;;
34765;SDS011;20984;43.508;1.504;2022-10-31T06:39:39;32.20;;;14.35;;
34765;SDS011;20984;43.508;1.504;2022-10-31T06:42:05;31.88;;;13.77;;
34765;SDS011;20984;43.508;1.504;2022-10-31T06:44:31;33.28;;;13.70;;
34765;SDS011;20984;43.508;1.504;2022-10-31T06:46:58;27.15;;;12.65;;
34765;SDS011;20984;43.508;1.504;2022-10-31T06:49:23;22.38;;;12.02;;
34765;SDS011;20984;43.508;1.504;2022-10-31T06:51:49;37.92;;;14.07;;
34765;SDS011;20984;43.508;1.504;2022-10-31T06:54:16;40.45;;;13.75;;
34765;SDS011;20984;43.508;1.504;2022-10-31T06:56:42;34.45;;;14.15;;
34765;SDS011;20984;43.508;1.504;2022-10-31T06:59:11;29.42;;;12.63;;
34765;SDS011;20984;43.508;1.504;2022-10-31T07:01:36;28.83;;;12.50;;
34765;SDS011;20984;43.508;1.504;2022-10-31T07:04:02;35.53;;;12.63;;
34765;SDS011;20984;43.508;1.504;2022-10-31T07:06:28;30.75;;;11.93;;
34765;SDS011;20984;43.508;1.504;2022-10-31T07:08:54;32.25;;;12.05;;
34765;SDS011;20984;43.508;1.504;2022-10-31T07:11:20;31.83;;;11.27;;
34765;SDS011;20984;43.508;1.504;2022-10-31T07:13:45;27.80;;;11.63;;
34765;SDS011;20984;43.508;1.504;2022-10-31T07:16:11;36.97;;;11.60;;
34765;SDS011;20984;43.508;1.504;2022-10-31T07:18:38;27.90;;;11.95;;
34765;SDS011;20984;43.508;1.504;2022-10-31T07:21:04;27.60;;;12.05;;
34765;SDS011;20984;43.508;1.504;2022-10-31T07:23:30;34.63;;;12.13;;
34765;SDS011;20984;43.508;1.504;2022-10-31T07:25:56;30.80;;;10.98;;
34765;SDS011;20984;43.508;1.504;2022-10-31T07:28:23;26.73;;;11.07;;
34765;SDS011;20984;43.508;1.504;2022-10-31T07:30:50;25.70;;;10.35;;
34765;SDS011;20984;43.508;1.504;2022-10-31T07:33:17;29.23;;;11.38;;
34765;SDS011;20984;43.508;1.504;2022-10-31T07:35:43;27.65;;;12.43;;
34765;SDS011;20984;43.508;1.504;2022-10-31T07:38:09;31.17;;;11.60;;
34765;SDS011;20984;43.508;1.504;2022-10-31T07:40:36;31.90;;;10.55;;
34765;SDS011;20984;43.508;1.504;2022-10-31T07:43:03;26.38;;;10.82;;
34765;SDS011;20984;43.508;1.504;2022-10-31T07:45:29;24.20;;;10.10;;
34765;SDS011;20984;43.508;1.504;2022-10-31T07:47:54;32.75;;;10.65;;
34765;SDS011;20984;43.508;1.504;2022-10-31T07:50:22;36.05;;;10.70;;
34765;SDS011;20984;43.508;1.504;2022-10-31T07:52:59;27.85;;;10.70;;
34765;SDS011;20984;43.508;1.504;2022-10-31T07:55:26;26.08;;;10.60;;
34765;SDS011;20984;43.508;1.504;2022-10-31T07:57:58;33.47;;;11.30;;
34765;SDS011;20984;43.508;1.504;2022-10-31T08:00:26;28.58;;;9.55;;
34765;SDS011;20984;43.508;1.504;2022-10-31T08:03:01;28.77;;;10.90;;
34765;SDS011;20984;43.508;1.504;2022-10-31T08:05:32;28.75;;;10.45;;
34765;SDS011;20984;43.508;1.504;2022-10-31T08:07:58;25.75;;;10.50;;
34765;SDS011;20984;43.508;1.504;2022-10-31T08:10:25;20.90;;;10.07;;
34765;SDS011;20984;43.508;1.504;2022-10-31T08:13:02;29.95;;;11.07;;
34765;SDS011;20984;43.508;1.504;2022-10-31T08:15:29;24.60;;;9.63;;
34765;SDS011;20984;43.508;1.504;2022-10-31T08:17:56;23.27;;;9.20;;
34765;SDS011;20984;43.508;1.504;2022-10-31T08:20:23;23.27;;;9.52;;
34765;SDS011;20984;43.508;1.504;2022-10-31T08:23:22;22.85;;;9.60;;
34765;SDS011;20984;43.508;1.504;2022-10-31T08:25:41;29.15;;;9.73;;
34765;SDS011;20984;43.508;1.504;2022-10-31T08:28:08;27.67;;;8.77;;
34765;SDS011;20984;43.508;1.504;2022-10-31T08:30:35;18.48;;;9.88;;
34765;SDS011;20984;43.508;1.504;2022-10-31T08:33:06;24.35;;;9.70;;
34765;SDS011;20984;43.508;1.504;2022-10-31T08:35:36;34.35;;;9.05;;
34765;SDS011;20984;43.508;1.504;2022-10-31T08:38:02;19.77;;;7.65;;
34765;SDS011;20984;43.508;1.504;2022-10-31T08:40:29;23.58;;;8.98;;
34765;SDS011;20984;43.508;1.504;2022-10-31T08:42:59;22.08;;;8.40;;
34765;SDS011;20984;43.508;1.504;2022-10-31T08:45:27;35.45;;;9.05;;
34765;SDS011;20984;43.508;1.504;2022-10-31T08:47:58;21.23;;;8.55;;
34765;SDS011;20984;43.508;1.504;2022-10-31T08:50:33;30.90;;;9.05;;
34765;SDS011;20984;43.508;1.504;2022-10-31T08:53:03;21.65;;;8.25;;
34765;SDS011;20984;43.508;1.504;2022-10-31T08:55:36;30.48;;;9.18;;
34765;SDS011;20984;43.508;1.504;2022-10-31T08:58:04;28.33;;;8.43;;
34765;SDS011;20984;43.508;1.504;2022-10-31T09:00:31;26.13;;;8.60;;
34765;SDS011;20984;43.508;1.504;2022-10-31T09:03:00;34.25;;;8.25;;
34765;SDS011;20984;43.508;1.504;2022-10-31T09:05:27;31.88;;;8.57;;
34765;SDS011;20984;43.508;1.504;2022-10-31T09:07:56;27.15;;;7.55;;
34765;SDS011;20984;43.508;1.504;2022-10-31T09:10:23;18.00;;;7.97;;
34765;SDS011;20984;43.508;1.504;2022-10-31T09:13:00;26.52;;;7.63;;
34765;SDS011;20984;43.508;1.504;2022-10-31T09:15:37;19.40;;;7.57;;
34765;SDS011;20984;43.508;1.504;2022-10-31T09:18:04;28.17;;;9.02;;
34765;SDS011;20984;43.508;1.504;2022-10-31T09:20:31;20.95;;;7.80;;
34765;SDS011;20984;43.508;1.504;2022-10-31T09:23:00;28.40;;;8.73;;
34765;SDS011;20984;43.508;1.504;2022-10-31T09:25:29;31.38;;;8.00;;
34765;SDS011;20984;43.508;1.504;2022-10-31T09:27:55;24.80;;;8.65;;
34765;SDS011;20984;43.508;1.504;2022-10-31T09:30:22;21.08;;;6.93;;
34765;SDS011;20984;43.508;1.504;2022-10-31T09:32:48;19.83;;;8.02;;
34765;SDS011;20984;43.508;1.504;2022-10-31T09:35:20;31.13;;;7.63;;
34765;SDS011;20984;43.508;1.504;2022-10-31T09:37:46;22.80;;;8.23;;
34765;SDS011;20984;43.508;1.504;2022-10-31T09:40:12;38.47;;;9.52;;
34765;SDS011;20984;43.508;1.504;2022-10-31T09:43:39;25.58;;;7.97;;
34765;SDS011;20984;43.508;1.504;2022-10-31T09:51:32;16.63;;;6.70;;
34765;SDS011;20984;43.508;1.504;2022-10-31T09:54:15;32.75;;;8.23;;
34765;SDS011;20984;43.508;1.504;2022-10-31T09:56:51;19.73;;;6.63;;
34765;SDS011;20984;43.508;1.504;2022-10-31T09:59:20;25.20;;;8.02;;
34765;SDS011;20984;43.508;1.504;2022-10-31T10:02:10;22.38;;;7.30;;
34765;SDS011;20984;43.508;1.504;2022-10-31T10:04:44;17.50;;;6.90;;
34765;SDS011;20984;43.508;1.504;2022-10-31T10:10:34;19.58;;;7.63;;
34765;SDS011;20984;43.508;1.504;2022-10-31T10:16:23;22.80;;;7.18;;
34765;SDS011;20984;43.508;1.504;2022-10-31T10:22:05;16.85;;;7.55;;
34765;SDS011;20984;43.508;1.504;2022-10-31T10:30:15;21.73;;;6.38;;
34765;SDS011;20984;43.508;1.504;2022-10-31T10:32:44;19.48;;;6.45;;
34765;SDS011;20984;43.508;1.504;2022-10-31T10:35:19;27.23;;;7.57;;
34765;SDS011;20984;43.508;1.504;2022-10-31T10:37:50;21.73;;;7.07;;
34765;SDS011;20984;43.508;1.504;2022-10-31T10:40:20;22.77;;;6.93;;
34765;SDS011;20984;43.508;1.504;2022-10-31T10:45:47;17.15;;;6.53;;
34765;SDS011;20984;43.508;1.504;2022-10-31T10:51:15;22.17;;;6.80;;
34765;SDS011;20984;43.508;1.504;2022-10-31T10:56:51;13.60;;;6.30;;
34765;SDS011;20984;43.508;1.504;2022-10-31T10:59:31;27.65;;;8.15;;
34765;SDS011;20984;43.508;1.504;2022-10-31T11:01:56;23.73;;;6.10;;
34765;SDS011;20984;43.508;1.504;2022-10-31T11:04:29;20.50;;;5.75;;
34765;SDS011;20984;43.508;1.504;2022-10-31T11:07:03;18.77;;;6.45;;
34765;SDS011;20984;43.508;1.504;2022-10-31T11:09:37;14.27;;;5.75;;
34765;SDS011;20984;43.508;1.504;2022-10-31T11:12:10;15.55;;;6.03;;
34765;SDS011;20984;43.508;1.504;2022-10-31T11:14:53;20.10;;;6.20;;
34765;SDS011;20984;43.508;1.504;2022-10-31T11:17:39;21.45;;;6.90;;
34765;SDS011;20984;43.508;1.504;2022-10-31T11:22:37;21.00;;;6.45;;
34765;SDS011;20984;43.508;1.504;2022-10-31T11:27:44;20.50;;;6.25;;
34765;SDS011;20984;43.508;1.504;2022-10-31T11:30:12;20.92;;;6.25;;
34765;SDS011;20984;43.508;1.504;2022-10-31T11:32:49;31.20;;;7.25;;
34765;SDS011;20984;43.508;1.504;2022-10-31T11:35:19;15.27;;;6.88;;
34765;SDS011;20984;43.508;1.504;2022-10-31T11:37:48;18.85;;;6.57;;
34765;SDS011;20984;43.508;1.504;2022-10-31T11:40:20;19.20;;;7.23;;
34765;SDS011;20984;43.508;1.504;2022-10-31T11:42:49;15.35;;;5.78;;
34765;SDS011;20984;43.508;1.504;2022-10-31T11:45:28;24.05;;;7.03;;
34765;SDS011;20984;43.508;1.504;2022-10-31T11:47:58;20.70;;;6.35;;
34765;SDS011;20984;43.508;1.504;2022-10-31T11:52:56;16.47;;;6.10;;
34765;SDS011;20984;43.508;1.504;2022-10-31T11:55:40;20.52;;;7.03;;
34765;SDS011;20984;43.508;1.504;2022-10-31T11:58:19;15.52;;;5.88;;
34765;SDS011;20984;43.508;1.504;2022-10-31T12:00:51;19.45;;;6.18;;
34765;SDS011;20984;43.508;1.504;2022-10-31T12:08:37;22.23;;;7.13;;
34765;SDS011;20984;43.508;1.504;2022-10-31T12:16:24;15.95;;;6.45;;
34765;SDS011;20984;43.508;1.504;2022-10-31T12:19:09;21.15;;;6.07;;
34765;SDS011;20984;43.508;1.504;2022-10-31T12:35:56;17.13;;;5.50;;
34765;SDS011;20984;43.508;1.504;2022-10-31T12:43:49;18.65;;;5.85;;
34765;SDS011;20984;43.508;1.504;2022-10-31T12:49:25;20.55;;;6.07;;
34765;SDS011;20984;43.508;1.504;2022-10-31T12:57:45;17.83;;;6.28;;
34765;SDS011;20984;43.508;1.504;2022-10-31T13:00:17;22.20;;;5.78;;
34765;SDS011;20984;43.508;1.504;2022-10-31T13:05:44;21.63;;;6.07;;
34765;SDS011;20984;43.508;1.504;2022-10-31T13:09:15;22.08;;;6.25;;
34765;SDS011;20984;43.508;1.504;2022-10-31T13:16:31;20.17;;;5.97;;
34765;SDS011;20984;43.508;1.504;2022-10-31T13:19:08;13.05;;;5.50;;
34765;SDS011;20984;43.508;1.504;2022-10-31T13:21:52;19.58;;;5.93;;
34765;SDS011;20984;43.508;1.504;2022-10-31T13:24:36;15.70;;;5.57;;
34765;SDS011;20984;43.508;1.504;2022-10-31T13:27:21;19.90;;;5.85;;
34765;SDS011;20984;43.508;1.504;2022-10-31T13:30:04;19.67;;;5.13;;
34765;SDS011;20984;43.508;1.504;2022-10-31T13:38:22;17.08;;;5.70;;
34765;SDS011;20984;43.508;1.504;2022-10-31T13:41:06;12.90;;;5.50;;
34765;SDS011;20984;43.508;1.504;2022-10-31T13:48:57;14.90;;;4.75;;
34765;SDS011;20984;43.508;1.504;2022-10-31T13:51:25;19.45;;;6.07;;
34765;SDS011;20984;43.508;1.504;2022-10-31T13:53:57;22.00;;;6.55;;
34765;SDS011;20984;43.508;1.504;2022-10-31T13:56:31;16.92;;;5.70;;
34765;SDS011;20984;43.508;1.504;2022-10-31T14:01:34;20.40;;;5.85;;
34765;SDS011;20984;43.508;1.504;2022-10-31T14:06:52;21.58;;;6.20;;
34765;SDS011;20984;43.508;1.504;2022-10-31T14:09:49;19.98;;;5.75;;
34765;SDS011;20984;43.508;1.504;2022-10-31T14:15:15;18.00;;;5.82;;
34765;SDS011;20984;43.508;1.504;2022-10-31T14:17:48;13.70;;;5.18;;
34765;SDS011;20984;43.508;1.504;2022-10-31T14:25:53;16.30;;;5.30;;
34765;SDS011;20984;43.508;1.504;2022-10-31T14:28:31;18.45;;;6.15;;
34765;SDS011;20984;43.508;1.504;2022-10-31T14:30:59;20.38;;;6.15;;
34765;SDS011;20984;43.508;1.504;2022-10-31T14:33:29;23.65;;;6.43;;
34765;SDS011;20984;43.508;1.504;2022-10-31T14:36:00;20.48;;;5.60;;
34765;SDS011;20984;43.508;1.504;2022-10-31T14:41:42;16.35;;;5.03;;
34765;SDS011;20984;43.508;1.504;2022-10-31T14:52:37;19.45;;;6.75;;
34765;SDS011;20984;43.508;1.504;2022-10-31T14:55:05;25.05;;;7.90;;
34765;SDS011;20984;43.508;1.504;2022-10-31T14:57:35;22.35;;;6.05;;
34765;SDS011;20984;43.508;1.504;2022-10-31T15:00:07;19.65;;;6.88;;
34765;SDS011;20984;43.508;1.504;2022-10-31T15:05:18;22.20;;;6.15;;
34765;SDS011;20984;43.508;1.504;2022-10-31T15:07:54;23.88;;;7.13;;
34765;SDS011;20984;43.508;1.504;2022-10-31T15:12:52;16.60;;;6.78;;
34765;SDS011;20984;43.508;1.504;2022-10-31T15:15:22;14.75;;;5.93;;
34765;SDS011;20984;43.508;1.504;2022-10-31T15:17:53;17.88;;;6.40;;
34765;SDS011;20984;43.508;1.504;2022-10-31T15:20:24;20.33;;;6.38;;
34765;SDS011;20984;43.508;1.504;2022-10-31T15:22:52;21.55;;;7.68;;
34765;SDS011;20984;43.508;1.504;2022-10-31T15:25:22;19.88;;;6.63;;
34765;SDS011;20984;43.508;1.504;2022-10-31T15:27:49;19.52;;;6.25;;
34765;SDS011;20984;43.508;1.504;2022-10-31T15:30:21;19.38;;;6.47;;
34765;SDS011;20984;43.508;1.504;2022-10-31T15:32:49;11.88;;;6.40;;
34765;SDS011;20984;43.508;1.504;2022-10-31T15:35:26;23.63;;;7.60;;
34765;SDS011;20984;43.508;1.504;2022-10-31T15:37:54;20.50;;;6.47;;
34765;SDS011;20984;43.508;1.504;2022-10-31T15:40:22;19.77;;;6.70;;
34765;SDS011;20984;43.508;1.504;2022-10-31T15:42:54;19.02;;;6.30;;
34765;SDS011;20984;43.508;1.504;2022-10-31T15:45:25;16.20;;;6.47;;
34765;SDS011;20984;43.508;1.504;2022-10-31T15:47:56;21.38;;;7.50;;
34765;SDS011;20984;43.508;1.504;2022-10-31T15:50:39;21.42;;;8.30;;
34765;SDS011;20984;43.508;1.504;2022-10-31T15:53:13;20.13;;;5.85;;
34765;SDS011;20984;43.508;1.504;2022-10-31T15:55:46;24.40;;;6.57;;
34765;SDS011;20984;43.508;1.504;2022-10-31T15:58:15;29.98;;;7.82;;
34765;SDS011;20984;43.508;1.504;2022-10-31T16:00:42;18.77;;;6.38;;
34765;SDS011;20984;43.508;1.504;2022-10-31T16:05:44;22.65;;;7.07;;
34765;SDS011;20984;43.508;1.504;2022-10-31T16:08:48;27.02;;;7.13;;
34765;SDS011;20984;43.508;1.504;2022-10-31T16:13:40;21.88;;;7.00;;
34765;SDS011;20984;43.508;1.504;2022-10-31T16:16:17;19.02;;;7.10;;
34765;SDS011;20984;43.508;1.504;2022-10-31T16:18:45;21.77;;;7.22;;
34765;SDS011;20984;43.508;1.504;2022-10-31T16:21:11;34.33;;;9.65;;
34765;SDS011;20984;43.508;1.504;2022-10-31T16:23:38;17.30;;;7.20;;
34765;SDS011;20984;43.508;1.504;2022-10-31T16:26:13;27.98;;;8.35;;
34765;SDS011;20984;43.508;1.504;2022-10-31T16:28:49;18.65;;;7.47;;
34765;SDS011;20984;43.508;1.504;2022-10-31T16:31:25;21.35;;;7.32;;
34765;SDS011;20984;43.508;1.504;2022-10-31T16:34:01;22.65;;;7.15;;
34765;SDS011;20984;43.508;1.504;2022-10-31T16:36:37;21.30;;;7.95;;
34765;SDS011;20984;43.508;1.504;2022-10-31T16:39:04;24.90;;;7.95;;
34765;SDS011;20984;43.508;1.504;2022-10-31T16:41:31;20.65;;;7.28;;
34765;SDS011;20984;43.508;1.504;2022-10-31T16:44:06;22.52;;;8.50;;
34765;SDS011;20984;43.508;1.504;2022-10-31T16:46:52;19.10;;;8.10;;
34765;SDS011;20984;43.508;1.504;2022-10-31T16:49:37;18.30;;;7.70;;
34765;SDS011;20984;43.508;1.504;2022-10-31T16:52:07;22.73;;;8.32;;
34765;SDS011;20984;43.508;1.504;2022-10-31T16:54:43;24.42;;;8.75;;
34765;SDS011;20984;43.508;1.504;2022-10-31T16:57:14;22.42;;;8.93;;
34765;SDS011;20984;43.508;1.504;2022-10-31T16:59:42;25.45;;;7.95;;
34765;SDS011;20984;43.508;1.504;2022-10-31T17:02:17;26.17;;;9.60;;
34765;SDS011;20984;43.508;1.504;2022-10-31T17:04:46;18.17;;;8.38;;
34765;SDS011;20984;43.508;1.504;2022-10-31T17:07:18;25.63;;;8.35;;
34765;SDS011;20984;43.508;1.504;2022-10-31T17:09:51;32.42;;;7.72;;
34765;SDS011;20984;43.508;1.504;2022-10-31T17:12:18;30.05;;;8.07;;
34765;SDS011;20984;43.508;1.504;2022-10-31T17:14:49;16.83;;;8.55;;
34765;SDS011;20984;43.508;1.504;2022-10-31T17:17:19;22.80;;;8.25;;
34765;SDS011;20984;43.508;1.504;2022-10-31T17:19:52;32.22;;;9.85;;
34765;SDS011;20984;43.508;1.504;2022-10-31T17:22:18;25.63;;;9.27;;
34765;SDS011;20984;43.508;1.504;2022-10-31T17:24:54;18.00;;;9.18;;
34765;SDS011;20984;43.508;1.504;2022-10-31T17:27:19;22.95;;;8.43;;
34765;SDS011;20984;43.508;1.504;2022-10-31T17:29:45;20.70;;;7.78;;
34765;SDS011;20984;43.508;1.504;2022-10-31T17:32:11;25.73;;;9.10;;
34765;SDS011;20984;43.508;1.504;2022-10-31T17:34:37;23.52;;;8.32;;
34765;SDS011;20984;43.508;1.504;2022-10-31T17:37:02;25.70;;;9.32;;
34765;SDS011;20984;43.508;1.504;2022-10-31T17:39:28;19.45;;;8.68;;